sensor_id;sensor_type;location;lat;lon;timestamp;temperature;humidity
210;DHT22;90;48.810;9.120;2022-09-09T00:02:01;18.50;65.20
210;DHT22;90;48.810;9.120;2022-09-09T00:04:32;18.40;65.30
210;DHT22;90;48.810;9.120;2022-09-09T00:07:03;18.40;65.40
210;DHT22;90;48.810;9.120;2022-09-09T00:09:36;18.40;65.50
210;DHT22;90;48.810;9.120;2022-09-09T00:12:11;18.40;65.50
210;DHT22;90;48.810;9.120;2022-09-09T00:14:47;18.40;65.60
210;DHT22;90;48.810;9.120;2022-09-09T00:17:24;18.40;65.70
210;DHT22;90;48.810;9.120;2022-09-09T00:19:59;18.30;65.90
210;DHT22;90;48.810;9.120;2022-09-09T00:22:30;18.30;65.90
210;DHT22;90;48.810;9.120;2022-09-09T00:25:05;18.30;65.90
210;DHT22;90;48.810;9.120;2022-09-09T00:27:40;18.30;66.00
210;DHT22;90;48.810;9.120;2022-09-09T00:30:16;18.20;66.20
210;DHT22;90;48.810;9.120;2022-09-09T00:32:45;18.20;66.30
210;DHT22;90;48.810;9.120;2022-09-09T00:35:20;18.20;66.00
210;DHT22;90;48.810;9.120;2022-09-09T00:37:52;18.20;65.90
210;DHT22;90;48.810;9.120;2022-09-09T00:40:26;18.20;65.90
210;DHT22;90;48.810;9.120;2022-09-09T00:43:18;18.30;65.70
210;DHT22;90;48.810;9.120;2022-09-09T00:46:21;18.30;65.60
210;DHT22;90;48.810;9.120;2022-09-09T00:48:57;18.30;65.20
210;DHT22;90;48.810;9.120;2022-09-09T00:51:37;18.40;65.20
210;DHT22;90;48.810;9.120;2022-09-09T00:54:25;18.40;65.00
210;DHT22;90;48.810;9.120;2022-09-09T00:57:00;18.40;65.00
210;DHT22;90;48.810;9.120;2022-09-09T00:59:35;18.50;65.00
210;DHT22;90;48.810;9.120;2022-09-09T01:02:13;18.60;64.70
210;DHT22;90;48.810;9.120;2022-09-09T01:04:42;18.50;64.70
210;DHT22;90;48.810;9.120;2022-09-09T01:07:15;18.60;64.50
210;DHT22;90;48.810;9.120;2022-09-09T01:09:51;18.70;64.50
210;DHT22;90;48.810;9.120;2022-09-09T01:12:26;18.70;64.30
210;DHT22;90;48.810;9.120;2022-09-09T01:15:01;18.80;64.20
210;DHT22;90;48.810;9.120;2022-09-09T01:17:33;18.90;64.10
210;DHT22;90;48.810;9.120;2022-09-09T01:20:07;18.90;64.10
210;DHT22;90;48.810;9.120;2022-09-09T01:22:43;18.90;64.10
210;DHT22;90;48.810;9.120;2022-09-09T01:25:30;18.90;64.10
210;DHT22;90;48.810;9.120;2022-09-09T01:28:03;19.00;64.10
210;DHT22;90;48.810;9.120;2022-09-09T01:30:33;19.00;64.00
210;DHT22;90;48.810;9.120;2022-09-09T01:33:01;18.90;64.30
210;DHT22;90;48.810;9.120;2022-09-09T01:35:42;19.00;64.20
210;DHT22;90;48.810;9.120;2022-09-09T01:38:10;19.00;64.40
210;DHT22;90;48.810;9.120;2022-09-09T01:40:38;18.90;64.50
210;DHT22;90;48.810;9.120;2022-09-09T01:43:06;18.80;64.80
210;DHT22;90;48.810;9.120;2022-09-09T01:45:34;18.80;64.70
210;DHT22;90;48.810;9.120;2022-09-09T01:48:02;18.80;65.00
210;DHT22;90;48.810;9.120;2022-09-09T01:50:29;18.70;65.40
210;DHT22;90;48.810;9.120;2022-09-09T01:52:58;18.80;65.00
210;DHT22;90;48.810;9.120;2022-09-09T01:55:30;18.70;65.00
210;DHT22;90;48.810;9.120;2022-09-09T01:58:11;18.70;65.30
210;DHT22;90;48.810;9.120;2022-09-09T02:00:45;18.70;65.50
210;DHT22;90;48.810;9.120;2022-09-09T02:03:21;18.60;65.50
210;DHT22;90;48.810;9.120;2022-09-09T02:05:58;18.50;66.00
210;DHT22;90;48.810;9.120;2022-09-09T02:08:35;18.50;65.90
210;DHT22;90;48.810;9.120;2022-09-09T02:11:11;18.50;66.30
210;DHT22;90;48.810;9.120;2022-09-09T02:13:40;18.60;66.00
210;DHT22;90;48.810;9.120;2022-09-09T02:16:10;18.70;65.60
210;DHT22;90;48.810;9.120;2022-09-09T02:18:44;18.60;65.80
210;DHT22;90;48.810;9.120;2022-09-09T02:21:15;18.50;66.00
210;DHT22;90;48.810;9.120;2022-09-09T02:23:45;18.50;66.40
210;DHT22;90;48.810;9.120;2022-09-09T02:26:14;18.50;66.30
210;DHT22;90;48.810;9.120;2022-09-09T02:28:51;18.40;66.50
210;DHT22;90;48.810;9.120;2022-09-09T02:31:22;18.40;66.80
210;DHT22;90;48.810;9.120;2022-09-09T02:33:54;18.30;67.10
210;DHT22;90;48.810;9.120;2022-09-09T02:36:25;18.20;67.40
210;DHT22;90;48.810;9.120;2022-09-09T02:38:55;18.20;67.50
210;DHT22;90;48.810;9.120;2022-09-09T02:41:25;18.30;67.20
210;DHT22;90;48.810;9.120;2022-09-09T02:43:55;18.20;67.40
210;DHT22;90;48.810;9.120;2022-09-09T02:46:39;18.20;67.70
210;DHT22;90;48.810;9.120;2022-09-09T02:49:18;18.10;67.80
210;DHT22;90;48.810;9.120;2022-09-09T02:51:53;18.10;67.80
210;DHT22;90;48.810;9.120;2022-09-09T02:54:27;18.20;67.70
210;DHT22;90;48.810;9.120;2022-09-09T02:57:01;18.30;67.60
210;DHT22;90;48.810;9.120;2022-09-09T02:59:30;18.30;67.70
210;DHT22;90;48.810;9.120;2022-09-09T03:01:58;18.20;68.00
210;DHT22;90;48.810;9.120;2022-09-09T03:04:25;18.20;68.20
210;DHT22;90;48.810;9.120;2022-09-09T03:06:54;18.20;68.30
210;DHT22;90;48.810;9.120;2022-09-09T03:09:21;18.20;68.40
210;DHT22;90;48.810;9.120;2022-09-09T03:11:50;18.10;68.50
210;DHT22;90;48.810;9.120;2022-09-09T03:14:18;18.10;68.90
210;DHT22;90;48.810;9.120;2022-09-09T03:16:51;18.10;68.90
210;DHT22;90;48.810;9.120;2022-09-09T03:19:19;18.10;69.00
210;DHT22;90;48.810;9.120;2022-09-09T03:21:46;18.00;69.10
210;DHT22;90;48.810;9.120;2022-09-09T03:24:15;17.90;69.20
210;DHT22;90;48.810;9.120;2022-09-09T03:26:42;17.80;69.50
210;DHT22;90;48.810;9.120;2022-09-09T03:29:13;17.80;69.60
210;DHT22;90;48.810;9.120;2022-09-09T03:31:41;17.80;69.90
210;DHT22;90;48.810;9.120;2022-09-09T03:34:10;17.70;70.00
210;DHT22;90;48.810;9.120;2022-09-09T03:36:37;17.80;69.80
210;DHT22;90;48.810;9.120;2022-09-09T03:39:04;17.80;69.70
210;DHT22;90;48.810;9.120;2022-09-09T03:41:31;17.70;69.70
210;DHT22;90;48.810;9.120;2022-09-09T03:43:59;17.60;69.90
210;DHT22;90;48.810;9.120;2022-09-09T03:46:26;17.60;70.10
210;DHT22;90;48.810;9.120;2022-09-09T03:48:53;17.50;70.10
210;DHT22;90;48.810;9.120;2022-09-09T03:51:22;17.60;70.20
210;DHT22;90;48.810;9.120;2022-09-09T03:53:50;17.60;69.80
210;DHT22;90;48.810;9.120;2022-09-09T03:56:17;17.60;69.70
210;DHT22;90;48.810;9.120;2022-09-09T03:58:44;17.60;69.60
210;DHT22;90;48.810;9.120;2022-09-09T04:01:12;17.60;69.50
210;DHT22;90;48.810;9.120;2022-09-09T04:03:40;17.60;69.10
210;DHT22;90;48.810;9.120;2022-09-09T04:06:08;17.60;69.20
210;DHT22;90;48.810;9.120;2022-09-09T04:08:38;17.60;69.20
210;DHT22;90;48.810;9.120;2022-09-09T04:11:06;17.70;69.00
210;DHT22;90;48.810;9.120;2022-09-09T04:13:33;17.70;68.90
210;DHT22;90;48.810;9.120;2022-09-09T04:16:02;17.70;68.90
210;DHT22;90;48.810;9.120;2022-09-09T04:18:30;17.70;69.00
210;DHT22;90;48.810;9.120;2022-09-09T04:20:57;17.80;69.00
210;DHT22;90;48.810;9.120;2022-09-09T04:23:26;17.80;69.10
210;DHT22;90;48.810;9.120;2022-09-09T04:25:58;17.80;69.10
210;DHT22;90;48.810;9.120;2022-09-09T04:28:28;17.70;69.50
210;DHT22;90;48.810;9.120;2022-09-09T04:30:56;17.80;69.40
210;DHT22;90;48.810;9.120;2022-09-09T04:33:24;17.80;69.50
210;DHT22;90;48.810;9.120;2022-09-09T04:35:52;17.90;69.60
210;DHT22;90;48.810;9.120;2022-09-09T04:38:21;17.80;69.60
210;DHT22;90;48.810;9.120;2022-09-09T04:40:50;17.70;70.10
210;DHT22;90;48.810;9.120;2022-09-09T04:43:21;17.60;70.60
210;DHT22;90;48.810;9.120;2022-09-09T04:45:49;17.60;70.60
210;DHT22;90;48.810;9.120;2022-09-09T04:48:17;17.60;70.60
210;DHT22;90;48.810;9.120;2022-09-09T04:50:53;17.60;70.40
210;DHT22;90;48.810;9.120;2022-09-09T04:53:21;17.60;70.60
210;DHT22;90;48.810;9.120;2022-09-09T04:55:48;17.50;70.50
210;DHT22;90;48.810;9.120;2022-09-09T04:58:15;17.50;70.60
210;DHT22;90;48.810;9.120;2022-09-09T05:00:44;17.50;70.40
210;DHT22;90;48.810;9.120;2022-09-09T05:03:12;17.50;70.40
210;DHT22;90;48.810;9.120;2022-09-09T05:05:39;17.50;70.30
210;DHT22;90;48.810;9.120;2022-09-09T05:08:07;17.60;69.90
210;DHT22;90;48.810;9.120;2022-09-09T05:10:37;17.60;70.00
210;DHT22;90;48.810;9.120;2022-09-09T05:13:05;17.60;69.90
210;DHT22;90;48.810;9.120;2022-09-09T05:15:33;17.70;69.90
210;DHT22;90;48.810;9.120;2022-09-09T05:18:02;17.60;70.00
210;DHT22;90;48.810;9.120;2022-09-09T05:20:29;17.50;70.10
210;DHT22;90;48.810;9.120;2022-09-09T05:22:56;17.60;70.00
210;DHT22;90;48.810;9.120;2022-09-09T05:25:24;17.60;69.70
210;DHT22;90;48.810;9.120;2022-09-09T05:27:53;17.60;69.80
210;DHT22;90;48.810;9.120;2022-09-09T05:30:21;17.80;69.90
210;DHT22;90;48.810;9.120;2022-09-09T05:32:48;17.80;69.10
210;DHT22;90;48.810;9.120;2022-09-09T05:35:17;17.90;68.90
210;DHT22;90;48.810;9.120;2022-09-09T05:37:44;17.90;68.70
210;DHT22;90;48.810;9.120;2022-09-09T05:40:12;17.90;68.50
210;DHT22;90;48.810;9.120;2022-09-09T05:42:42;18.00;68.30
210;DHT22;90;48.810;9.120;2022-09-09T05:45:09;18.10;68.00
210;DHT22;90;48.810;9.120;2022-09-09T05:47:37;18.10;67.90
210;DHT22;90;48.810;9.120;2022-09-09T05:50:05;18.10;68.10
210;DHT22;90;48.810;9.120;2022-09-09T05:52:34;18.20;67.90
210;DHT22;90;48.810;9.120;2022-09-09T05:55:01;18.10;68.20
210;DHT22;90;48.810;9.120;2022-09-09T05:57:30;18.10;67.80
210;DHT22;90;48.810;9.120;2022-09-09T05:59:57;18.20;67.90
210;DHT22;90;48.810;9.120;2022-09-09T06:02:24;18.20;67.80
210;DHT22;90;48.810;9.120;2022-09-09T06:04:51;18.20;68.20
210;DHT22;90;48.810;9.120;2022-09-09T06:07:18;18.20;68.10
210;DHT22;90;48.810;9.120;2022-09-09T06:09:47;18.30;68.20
210;DHT22;90;48.810;9.120;2022-09-09T06:12:14;18.30;68.40
210;DHT22;90;48.810;9.120;2022-09-09T06:14:41;18.20;68.60
210;DHT22;90;48.810;9.120;2022-09-09T06:17:08;18.30;68.20
210;DHT22;90;48.810;9.120;2022-09-09T06:19:35;18.30;68.00
210;DHT22;90;48.810;9.120;2022-09-09T06:22:03;18.30;68.70
210;DHT22;90;48.810;9.120;2022-09-09T06:24:30;18.30;68.70
210;DHT22;90;48.810;9.120;2022-09-09T06:26:59;18.30;68.80
210;DHT22;90;48.810;9.120;2022-09-09T06:29:26;18.20;69.20
210;DHT22;90;48.810;9.120;2022-09-09T06:31:54;18.20;69.40
210;DHT22;90;48.810;9.120;2022-09-09T06:34:21;18.30;69.50
210;DHT22;90;48.810;9.120;2022-09-09T06:36:48;18.30;69.70
210;DHT22;90;48.810;9.120;2022-09-09T06:39:16;18.20;69.90
210;DHT22;90;48.810;9.120;2022-09-09T06:41:44;18.30;70.10
210;DHT22;90;48.810;9.120;2022-09-09T06:44:12;18.20;70.20
210;DHT22;90;48.810;9.120;2022-09-09T06:46:41;18.20;70.40
210;DHT22;90;48.810;9.120;2022-09-09T06:49:13;18.20;70.60
210;DHT22;90;48.810;9.120;2022-09-09T06:51:43;18.30;70.50
210;DHT22;90;48.810;9.120;2022-09-09T06:54:11;18.30;70.60
210;DHT22;90;48.810;9.120;2022-09-09T06:56:44;18.50;70.60
210;DHT22;90;48.810;9.120;2022-09-09T06:59:12;18.50;70.10
210;DHT22;90;48.810;9.120;2022-09-09T07:01:41;18.60;69.70
210;DHT22;90;48.810;9.120;2022-09-09T07:04:09;18.50;70.30
210;DHT22;90;48.810;9.120;2022-09-09T07:06:39;18.60;69.90
210;DHT22;90;48.810;9.120;2022-09-09T07:09:10;18.60;69.90
210;DHT22;90;48.810;9.120;2022-09-09T07:11:39;18.60;69.90
210;DHT22;90;48.810;9.120;2022-09-09T07:14:07;18.60;69.80
210;DHT22;90;48.810;9.120;2022-09-09T07:16:36;18.70;69.80
210;DHT22;90;48.810;9.120;2022-09-09T07:19:04;18.70;70.00
210;DHT22;90;48.810;9.120;2022-09-09T07:21:32;18.70;69.70
210;DHT22;90;48.810;9.120;2022-09-09T07:23:59;18.80;69.90
210;DHT22;90;48.810;9.120;2022-09-09T07:26:29;18.90;70.00
210;DHT22;90;48.810;9.120;2022-09-09T07:28:57;18.80;70.30
210;DHT22;90;48.810;9.120;2022-09-09T07:31:25;18.90;70.00
210;DHT22;90;48.810;9.120;2022-09-09T07:33:56;19.00;69.90
210;DHT22;90;48.810;9.120;2022-09-09T07:36:27;19.00;70.00
210;DHT22;90;48.810;9.120;2022-09-09T07:38:56;19.10;69.80
210;DHT22;90;48.810;9.120;2022-09-09T07:41:25;19.20;69.30
210;DHT22;90;48.810;9.120;2022-09-09T07:43:53;19.30;68.30
210;DHT22;90;48.810;9.120;2022-09-09T07:46:22;19.30;68.40
210;DHT22;90;48.810;9.120;2022-09-09T07:48:51;19.20;67.80
210;DHT22;90;48.810;9.120;2022-09-09T07:51:23;19.10;68.30
210;DHT22;90;48.810;9.120;2022-09-09T07:53:53;19.00;69.20
210;DHT22;90;48.810;9.120;2022-09-09T07:56:20;19.10;69.80
210;DHT22;90;48.810;9.120;2022-09-09T07:58:51;19.20;69.80
210;DHT22;90;48.810;9.120;2022-09-09T08:01:20;19.30;68.90
210;DHT22;90;48.810;9.120;2022-09-09T08:03:54;19.50;68.30
210;DHT22;90;48.810;9.120;2022-09-09T08:06:27;19.60;67.40
210;DHT22;90;48.810;9.120;2022-09-09T08:08:55;19.70;67.50
210;DHT22;90;48.810;9.120;2022-09-09T08:11:24;19.70;67.60
210;DHT22;90;48.810;9.120;2022-09-09T08:13:52;19.60;67.40
210;DHT22;90;48.810;9.120;2022-09-09T08:16:33;19.70;67.10
210;DHT22;90;48.810;9.120;2022-09-09T08:19:03;19.90;66.80
210;DHT22;90;48.810;9.120;2022-09-09T08:21:34;20.00;67.00
210;DHT22;90;48.810;9.120;2022-09-09T08:24:03;20.00;66.60
210;DHT22;90;48.810;9.120;2022-09-09T08:26:32;20.10;66.60
210;DHT22;90;48.810;9.120;2022-09-09T08:29:01;20.00;66.10
210;DHT22;90;48.810;9.120;2022-09-09T08:31:33;20.00;65.90
210;DHT22;90;48.810;9.120;2022-09-09T08:34:02;20.10;66.30
210;DHT22;90;48.810;9.120;2022-09-09T08:36:32;20.00;66.70
210;DHT22;90;48.810;9.120;2022-09-09T08:39:01;20.00;67.00
210;DHT22;90;48.810;9.120;2022-09-09T08:41:47;20.10;66.50
210;DHT22;90;48.810;9.120;2022-09-09T08:44:23;20.20;66.70
210;DHT22;90;48.810;9.120;2022-09-09T08:47:07;20.30;65.80
210;DHT22;90;48.810;9.120;2022-09-09T08:49:57;20.40;65.50
210;DHT22;90;48.810;9.120;2022-09-09T08:52:31;20.80;67.20
210;DHT22;90;48.810;9.120;2022-09-09T08:55:05;21.00;64.60
210;DHT22;90;48.810;9.120;2022-09-09T08:57:39;21.30;64.80
210;DHT22;90;48.810;9.120;2022-09-09T09:00:09;21.40;62.60
210;DHT22;90;48.810;9.120;2022-09-09T09:02:44;21.50;62.20
210;DHT22;90;48.810;9.120;2022-09-09T09:05:23;21.70;61.40
210;DHT22;90;48.810;9.120;2022-09-09T09:08:02;21.80;61.80
210;DHT22;90;48.810;9.120;2022-09-09T09:10:45;21.90;60.90
210;DHT22;90;48.810;9.120;2022-09-09T09:13:15;21.70;60.20
210;DHT22;90;48.810;9.120;2022-09-09T09:15:46;21.60;59.30
210;DHT22;90;48.810;9.120;2022-09-09T09:18:19;21.50;61.40
210;DHT22;90;48.810;9.120;2022-09-09T09:20:52;21.50;62.10
210;DHT22;90;48.810;9.120;2022-09-09T09:23:35;21.40;62.80
210;DHT22;90;48.810;9.120;2022-09-09T09:26:25;21.30;63.40
210;DHT22;90;48.810;9.120;2022-09-09T09:28:56;21.40;63.70
210;DHT22;90;48.810;9.120;2022-09-09T09:31:25;21.40;63.50
210;DHT22;90;48.810;9.120;2022-09-09T09:33:55;21.40;64.10
210;DHT22;90;48.810;9.120;2022-09-09T09:36:33;21.40;64.50
210;DHT22;90;48.810;9.120;2022-09-09T09:39:03;21.30;64.60
210;DHT22;90;48.810;9.120;2022-09-09T09:41:32;21.30;65.00
210;DHT22;90;48.810;9.120;2022-09-09T09:44:01;21.40;64.50
210;DHT22;90;48.810;9.120;2022-09-09T09:46:29;21.70;63.50
210;DHT22;90;48.810;9.120;2022-09-09T09:49:00;21.70;61.40
210;DHT22;90;48.810;9.120;2022-09-09T09:51:29;21.80;59.40
210;DHT22;90;48.810;9.120;2022-09-09T09:54:14;21.90;59.50
210;DHT22;90;48.810;9.120;2022-09-09T09:56:43;22.00;57.70
210;DHT22;90;48.810;9.120;2022-09-09T09:59:21;22.10;57.60
210;DHT22;90;48.810;9.120;2022-09-09T10:01:48;22.20;57.90
210;DHT22;90;48.810;9.120;2022-09-09T10:04:17;22.30;57.60
210;DHT22;90;48.810;9.120;2022-09-09T10:06:46;22.40;55.40
210;DHT22;90;48.810;9.120;2022-09-09T10:09:23;22.50;56.50
210;DHT22;90;48.810;9.120;2022-09-09T10:11:57;22.60;56.40
210;DHT22;90;48.810;9.120;2022-09-09T10:14:31;22.50;55.70
210;DHT22;90;48.810;9.120;2022-09-09T10:17:12;22.30;55.20
210;DHT22;90;48.810;9.120;2022-09-09T10:19:50;22.10;56.70
210;DHT22;90;48.810;9.120;2022-09-09T10:22:25;22.10;56.40
210;DHT22;90;48.810;9.120;2022-09-09T10:25:19;22.00;55.70
210;DHT22;90;48.810;9.120;2022-09-09T10:28:06;22.00;55.80
210;DHT22;90;48.810;9.120;2022-09-09T10:30:44;21.80;56.70
210;DHT22;90;48.810;9.120;2022-09-09T10:33:23;21.80;57.80
210;DHT22;90;48.810;9.120;2022-09-09T10:35:59;22.00;57.50
210;DHT22;90;48.810;9.120;2022-09-09T10:38:37;22.10;57.00
210;DHT22;90;48.810;9.120;2022-09-09T10:41:25;22.20;56.40
210;DHT22;90;48.810;9.120;2022-09-09T10:44:21;22.10;56.20
210;DHT22;90;48.810;9.120;2022-09-09T10:47:03;22.30;54.80
210;DHT22;90;48.810;9.120;2022-09-09T10:49:53;22.40;52.00
210;DHT22;90;48.810;9.120;2022-09-09T10:52:28;22.40;52.60
210;DHT22;90;48.810;9.120;2022-09-09T10:55:01;22.30;52.80
210;DHT22;90;48.810;9.120;2022-09-09T10:57:35;22.30;53.30
210;DHT22;90;48.810;9.120;2022-09-09T11:00:06;22.30;53.60
210;DHT22;90;48.810;9.120;2022-09-09T11:02:34;22.20;54.30
210;DHT22;90;48.810;9.120;2022-09-09T11:05:05;22.00;57.10
210;DHT22;90;48.810;9.120;2022-09-09T11:07:37;21.80;58.20
210;DHT22;90;48.810;9.120;2022-09-09T11:10:17;21.30;59.80
210;DHT22;90;48.810;9.120;2022-09-09T11:12:49;21.00;60.10
210;DHT22;90;48.810;9.120;2022-09-09T11:15:20;20.50;61.00
210;DHT22;90;48.810;9.120;2022-09-09T11:17:52;20.20;63.20
210;DHT22;90;48.810;9.120;2022-09-09T11:20:20;20.00;65.10
210;DHT22;90;48.810;9.120;2022-09-09T11:22:53;19.70;64.00
210;DHT22;90;48.810;9.120;2022-09-09T11:25:26;19.60;63.60
210;DHT22;90;48.810;9.120;2022-09-09T11:30:54;19.60;63.60
210;DHT22;90;48.810;9.120;2022-09-09T11:39:35;19.40;63.60
210;DHT22;90;48.810;9.120;2022-09-09T11:42:07;19.40;64.50
210;DHT22;90;48.810;9.120;2022-09-09T11:44:43;19.40;64.90
210;DHT22;90;48.810;9.120;2022-09-09T11:47:20;19.40;64.40
210;DHT22;90;48.810;9.120;2022-09-09T11:49:50;19.40;65.20
210;DHT22;90;48.810;9.120;2022-09-09T11:52:22;19.30;65.80
210;DHT22;90;48.810;9.120;2022-09-09T11:54:51;19.40;64.80
210;DHT22;90;48.810;9.120;2022-09-09T11:57:26;19.50;64.10
210;DHT22;90;48.810;9.120;2022-09-09T11:59:58;19.50;63.40
210;DHT22;90;48.810;9.120;2022-09-09T12:02:27;19.60;62.50
210;DHT22;90;48.810;9.120;2022-09-09T12:05:01;19.50;62.90
210;DHT22;90;48.810;9.120;2022-09-09T12:07:34;19.50;63.70
210;DHT22;90;48.810;9.120;2022-09-09T12:10:05;19.80;64.40
210;DHT22;90;48.810;9.120;2022-09-09T12:12:46;20.00;63.30
210;DHT22;90;48.810;9.120;2022-09-09T12:15:23;20.10;62.10
210;DHT22;90;48.810;9.120;2022-09-09T12:17:56;20.30;62.30
210;DHT22;90;48.810;9.120;2022-09-09T12:20:33;20.60;61.30
210;DHT22;90;48.810;9.120;2022-09-09T12:23:27;20.70;59.80
210;DHT22;90;48.810;9.120;2022-09-09T12:28:49;21.10;58.20
210;DHT22;90;48.810;9.120;2022-09-09T12:31:25;21.40;56.90
210;DHT22;90;48.810;9.120;2022-09-09T12:33:54;21.40;56.60
210;DHT22;90;48.810;9.120;2022-09-09T12:36:24;21.50;56.20
210;DHT22;90;48.810;9.120;2022-09-09T12:38:53;21.60;55.30
210;DHT22;90;48.810;9.120;2022-09-09T12:41:24;21.60;55.00
210;DHT22;90;48.810;9.120;2022-09-09T12:44:02;21.70;55.10
210;DHT22;90;48.810;9.120;2022-09-09T12:46:35;21.90;55.70
210;DHT22;90;48.810;9.120;2022-09-09T12:49:03;22.00;55.20
210;DHT22;90;48.810;9.120;2022-09-09T12:51:34;22.00;55.10
210;DHT22;90;48.810;9.120;2022-09-09T12:54:02;22.10;54.10
210;DHT22;90;48.810;9.120;2022-09-09T12:56:32;22.10;54.70
210;DHT22;90;48.810;9.120;2022-09-09T12:59:01;22.10;54.40
210;DHT22;90;48.810;9.120;2022-09-09T13:01:30;22.30;53.80
210;DHT22;90;48.810;9.120;2022-09-09T13:04:00;22.40;53.80
210;DHT22;90;48.810;9.120;2022-09-09T13:06:28;22.40;53.70
210;DHT22;90;48.810;9.120;2022-09-09T13:08:57;22.40;53.90
210;DHT22;90;48.810;9.120;2022-09-09T13:11:27;22.40;54.30
210;DHT22;90;48.810;9.120;2022-09-09T13:13:56;22.60;54.10
210;DHT22;90;48.810;9.120;2022-09-09T13:16:27;22.70;53.10
210;DHT22;90;48.810;9.120;2022-09-09T13:18:56;22.60;53.10
210;DHT22;90;48.810;9.120;2022-09-09T13:21:33;22.60;53.40
210;DHT22;90;48.810;9.120;2022-09-09T13:24:01;22.50;53.40
210;DHT22;90;48.810;9.120;2022-09-09T13:26:30;22.60;53.90
210;DHT22;90;48.810;9.120;2022-09-09T13:29:15;22.70;53.50
210;DHT22;90;48.810;9.120;2022-09-09T13:31:44;22.80;53.90
210;DHT22;90;48.810;9.120;2022-09-09T13:34:12;22.90;53.20
210;DHT22;90;48.810;9.120;2022-09-09T13:36:48;23.00;52.40
210;DHT22;90;48.810;9.120;2022-09-09T13:39:17;23.10;54.20
210;DHT22;90;48.810;9.120;2022-09-09T13:41:47;23.10;51.60
210;DHT22;90;48.810;9.120;2022-09-09T13:44:20;22.90;52.70
210;DHT22;90;48.810;9.120;2022-09-09T13:47:00;23.00;53.20
210;DHT22;90;48.810;9.120;2022-09-09T13:49:29;22.80;53.00
210;DHT22;90;48.810;9.120;2022-09-09T13:52:10;22.80;51.60
210;DHT22;90;48.810;9.120;2022-09-09T13:54:39;22.70;52.00
210;DHT22;90;48.810;9.120;2022-09-09T13:57:15;22.60;52.40
210;DHT22;90;48.810;9.120;2022-09-09T13:59:44;22.70;51.90
210;DHT22;90;48.810;9.120;2022-09-09T14:02:12;22.90;48.40
210;DHT22;90;48.810;9.120;2022-09-09T14:04:39;22.80;48.70
210;DHT22;90;48.810;9.120;2022-09-09T14:07:11;22.60;49.40
210;DHT22;90;48.810;9.120;2022-09-09T14:09:39;22.60;49.70
210;DHT22;90;48.810;9.120;2022-09-09T14:12:09;22.80;50.00
210;DHT22;90;48.810;9.120;2022-09-09T14:14:41;22.90;49.10
210;DHT22;90;48.810;9.120;2022-09-09T14:17:08;22.70;49.90
210;DHT22;90;48.810;9.120;2022-09-09T14:19:36;22.90;50.00
210;DHT22;90;48.810;9.120;2022-09-09T14:22:04;23.10;49.50
210;DHT22;90;48.810;9.120;2022-09-09T14:24:32;23.30;48.40
210;DHT22;90;48.810;9.120;2022-09-09T14:27:00;23.50;47.70
210;DHT22;90;48.810;9.120;2022-09-09T14:29:27;23.50;46.10
210;DHT22;90;48.810;9.120;2022-09-09T14:31:55;23.40;46.70
210;DHT22;90;48.810;9.120;2022-09-09T14:34:22;23.20;46.40
210;DHT22;90;48.810;9.120;2022-09-09T14:36:51;23.00;47.10
210;DHT22;90;48.810;9.120;2022-09-09T14:39:21;22.80;46.70
210;DHT22;90;48.810;9.120;2022-09-09T14:41:52;22.60;47.90
210;DHT22;90;48.810;9.120;2022-09-09T14:44:19;22.40;49.00
210;DHT22;90;48.810;9.120;2022-09-09T14:46:47;22.70;48.10
210;DHT22;90;48.810;9.120;2022-09-09T14:49:16;23.10;46.90
210;DHT22;90;48.810;9.120;2022-09-09T14:51:43;23.20;46.60
210;DHT22;90;48.810;9.120;2022-09-09T14:54:11;23.10;47.60
210;DHT22;90;48.810;9.120;2022-09-09T14:56:38;23.30;46.60
210;DHT22;90;48.810;9.120;2022-09-09T14:59:07;23.20;46.20
210;DHT22;90;48.810;9.120;2022-09-09T15:01:34;23.10;46.50
210;DHT22;90;48.810;9.120;2022-09-09T15:04:04;23.00;47.40
210;DHT22;90;48.810;9.120;2022-09-09T15:06:32;22.90;48.40
210;DHT22;90;48.810;9.120;2022-09-09T15:09:01;22.80;48.60
210;DHT22;90;48.810;9.120;2022-09-09T15:11:33;22.70;48.70
210;DHT22;90;48.810;9.120;2022-09-09T15:14:03;22.60;48.90
210;DHT22;90;48.810;9.120;2022-09-09T15:16:32;22.50;49.30
210;DHT22;90;48.810;9.120;2022-09-09T15:19:01;22.40;48.80
210;DHT22;90;48.810;9.120;2022-09-09T15:21:30;22.30;48.80
210;DHT22;90;48.810;9.120;2022-09-09T15:24:02;22.10;48.90
210;DHT22;90;48.810;9.120;2022-09-09T15:26:30;22.00;49.20
210;DHT22;90;48.810;9.120;2022-09-09T15:28:59;21.90;50.00
210;DHT22;90;48.810;9.120;2022-09-09T15:31:30;21.90;50.30
210;DHT22;90;48.810;9.120;2022-09-09T15:34:00;21.90;50.50
210;DHT22;90;48.810;9.120;2022-09-09T15:36:29;21.90;50.70
210;DHT22;90;48.810;9.120;2022-09-09T15:39:01;22.00;51.20
210;DHT22;90;48.810;9.120;2022-09-09T15:41:29;22.10;51.40
210;DHT22;90;48.810;9.120;2022-09-09T15:43:58;22.00;51.50
210;DHT22;90;48.810;9.120;2022-09-09T15:46:30;21.90;51.30
210;DHT22;90;48.810;9.120;2022-09-09T15:49:05;21.80;51.50
210;DHT22;90;48.810;9.120;2022-09-09T15:51:35;21.70;51.70
210;DHT22;90;48.810;9.120;2022-09-09T15:54:07;21.60;52.40
210;DHT22;90;48.810;9.120;2022-09-09T15:56:43;21.60;52.50
210;DHT22;90;48.810;9.120;2022-09-09T15:59:14;21.50;52.50
210;DHT22;90;48.810;9.120;2022-09-09T16:01:43;21.50;51.90
210;DHT22;90;48.810;9.120;2022-09-09T16:04:12;21.50;52.40
210;DHT22;90;48.810;9.120;2022-09-09T16:06:45;21.50;53.10
210;DHT22;90;48.810;9.120;2022-09-09T16:09:14;21.40;52.70
210;DHT22;90;48.810;9.120;2022-09-09T16:11:46;21.40;52.70
210;DHT22;90;48.810;9.120;2022-09-09T16:14:32;21.30;53.20
210;DHT22;90;48.810;9.120;2022-09-09T16:17:06;21.40;53.10
210;DHT22;90;48.810;9.120;2022-09-09T16:19:35;21.40;52.70
210;DHT22;90;48.810;9.120;2022-09-09T16:22:04;21.30;53.10
210;DHT22;90;48.810;9.120;2022-09-09T16:24:32;21.20;53.10
210;DHT22;90;48.810;9.120;2022-09-09T16:27:02;21.00;53.60
210;DHT22;90;48.810;9.120;2022-09-09T16:29:29;21.00;54.10
210;DHT22;90;48.810;9.120;2022-09-09T16:31:58;20.70;55.10
210;DHT22;90;48.810;9.120;2022-09-09T16:34:28;20.40;56.20
210;DHT22;90;48.810;9.120;2022-09-09T16:36:57;20.20;56.80
210;DHT22;90;48.810;9.120;2022-09-09T16:39:24;20.00;57.70
210;DHT22;90;48.810;9.120;2022-09-09T16:41:54;19.90;57.60
210;DHT22;90;48.810;9.120;2022-09-09T16:44:22;19.80;57.50
210;DHT22;90;48.810;9.120;2022-09-09T16:46:51;19.60;57.30
210;DHT22;90;48.810;9.120;2022-09-09T16:49:20;19.60;56.50
210;DHT22;90;48.810;9.120;2022-09-09T16:51:50;19.50;56.80
210;DHT22;90;48.810;9.120;2022-09-09T16:54:20;19.40;58.40
210;DHT22;90;48.810;9.120;2022-09-09T16:56:49;19.40;60.20
210;DHT22;90;48.810;9.120;2022-09-09T16:59:17;19.20;61.30
210;DHT22;90;48.810;9.120;2022-09-09T17:01:47;19.20;62.50
210;DHT22;90;48.810;9.120;2022-09-09T17:04:16;19.20;62.80
210;DHT22;90;48.810;9.120;2022-09-09T17:06:46;19.30;62.00
210;DHT22;90;48.810;9.120;2022-09-09T17:09:15;19.20;63.10
210;DHT22;90;48.810;9.120;2022-09-09T17:11:44;19.10;62.30
210;DHT22;90;48.810;9.120;2022-09-09T17:14:15;19.10;62.90
210;DHT22;90;48.810;9.120;2022-09-09T17:16:43;19.00;63.60
210;DHT22;90;48.810;9.120;2022-09-09T17:19:11;19.00;63.60
210;DHT22;90;48.810;9.120;2022-09-09T17:21:39;19.10;64.10
210;DHT22;90;48.810;9.120;2022-09-09T17:24:06;19.20;64.40
210;DHT22;90;48.810;9.120;2022-09-09T17:26:34;19.20;64.60
210;DHT22;90;48.810;9.120;2022-09-09T17:29:04;19.20;64.00
210;DHT22;90;48.810;9.120;2022-09-09T17:31:32;19.20;63.80